createdAt,value
2023-05-01T00:00:27.092Z,51.81
2023-05-01T00:01:26.965Z,51.27
2023-05-01T00:02:27.168Z,53.59
2023-05-01T00:03:27.104Z,51.06
2023-05-01T00:04:26.951Z,50.68
2023-05-01T00:05:27.000Z,55.32
2023-05-01T00:06:26.974Z,52.57
2023-05-01T00:07:26.930Z,51.60
2023-05-01T00:08:26.909Z,52.22
2023-05-01T00:09:26.873Z,53.09
2023-05-01T00:10:26.813Z,53.19
2023-05-01T00:11:26.878Z,52.04
2023-05-01T00:12:26.804Z,52.19
2023-05-01T00:13:26.788Z,50.71
2023-05-01T00:14:26.842Z,50.54
2023-05-01T00:15:26.813Z,51.53
2023-05-01T00:16:26.847Z,52.49
2023-05-01T00:17:26.852Z,51.81
2023-05-01T00:18:26.764Z,50.54
2023-05-01T00:19:26.838Z,52.73
2023-05-01T00:20:27.207Z,51.83
2023-05-01T00:21:26.883Z,51.11
2023-05-01T00:22:26.825Z,50.34
2023-05-01T00:23:26.913Z,53.39
2023-05-01T00:24:26.848Z,52.94
2023-05-01T00:25:26.878Z,50.33
2023-05-01T00:26:26.843Z,52.09
2023-05-01T00:27:26.767Z,52.47
2023-05-01T00:28:26.788Z,51.36
2023-05-01T00:29:26.760Z,53.08
2023-05-01T00:30:26.793Z,52.58
2023-05-01T00:31:26.817Z,51.25
2023-05-01T00:32:26.816Z,52.15
2023-05-01T00:33:26.810Z,53.64
2023-05-01T00:34:26.710Z,55.80
2023-05-01T00:35:27.631Z,55.89
2023-05-01T00:36:26.747Z,52.65
2023-05-01T00:37:26.676Z,50.98
2023-05-01T00:38:26.615Z,50.33
2023-05-01T00:39:26.652Z,49.79
2023-05-01T00:40:26.582Z,50.17
2023-05-01T00:41:26.608Z,53.01
2023-05-01T00:42:26.679Z,51.19
2023-05-01T00:43:26.703Z,51.19
2023-05-01T00:44:26.755Z,52.57
2023-05-01T00:45:26.717Z,51.60
2023-05-01T00:46:26.839Z,52.98
2023-05-01T00:47:26.751Z,54.20
2023-05-01T00:48:26.773Z,54.52
2023-05-01T00:49:26.616Z,50.85
2023-05-01T00:50:26.712Z,51.66
2023-05-01T00:51:26.654Z,50.98
2023-05-01T00:52:26.593Z,54.48
2023-05-01T00:53:26.679Z,51.18
2023-05-01T00:54:26.611Z,51.20
2023-05-01T00:55:26.600Z,51.44
2023-05-01T00:56:26.601Z,52.99
2023-05-01T00:57:26.526Z,53.35
2023-05-01T00:58:26.582Z,53.35
2023-05-01T00:59:27.136Z,51.88
2023-05-01T01:00:26.483Z,52.89
2023-05-01T01:01:26.554Z,53.10
2023-05-01T01:02:26.606Z,53.24
2023-05-01T01:03:26.545Z,53.72
2023-05-01T01:04:26.620Z,51.70
2023-05-01T01:05:26.591Z,54.38
2023-05-01T01:06:27.598Z,56.37
2023-05-01T01:07:26.617Z,52.50
2023-05-01T01:08:26.491Z,52.81
2023-05-01T01:09:26.590Z,50.91
2023-05-01T01:10:26.460Z,51.30
2023-05-01T01:11:26.421Z,54.02
2023-05-01T01:12:26.421Z,51.31
2023-05-01T01:13:26.458Z,50.95
2023-05-01T01:14:26.477Z,53.85
2023-05-01T01:15:26.403Z,54.80
2023-05-01T01:16:26.386Z,56.05
2023-05-01T01:17:26.363Z,52.29
2023-05-01T01:18:26.349Z,52.87
2023-05-01T01:19:26.343Z,51.24
2023-05-01T01:20:26.855Z,51.87
2023-05-01T01:21:26.399Z,53.61
2023-05-01T01:22:26.396Z,51.46
2023-05-01T01:23:26.425Z,51.45
2023-05-01T01:24:26.369Z,52.22
2023-05-01T01:25:26.428Z,52.99
2023-05-01T01:26:26.472Z,51.28
2023-05-01T01:27:26.372Z,52.36
2023-05-01T01:28:26.386Z,52.01
2023-05-01T01:29:26.369Z,50.82
2023-05-01T01:30:26.442Z,52.71
2023-05-01T01:31:26.441Z,50.79
2023-05-01T01:32:26.444Z,50.75
2023-05-01T01:33:26.426Z,52.17
2023-05-01T01:34:26.222Z,51.80
2023-05-01T01:35:26.270Z,52.76
2023-05-01T01:36:26.223Z,52.93
2023-05-01T01:37:26.320Z,51.23
2023-05-01T01:38:26.192Z,53.78
2023-05-01T01:39:26.216Z,55.25
2023-05-01T01:40:26.210Z,53.96
2023-05-01T01:41:26.241Z,52.88
2023-05-01T01:42:26.385Z,50.85
2023-05-01T01:43:26.256Z,50.09
2023-05-01T01:44:26.243Z,49.92
2023-05-01T01:45:26.263Z,52.78
2023-05-01T01:46:26.284Z,52.83
2023-05-01T01:47:26.254Z,54.59
2023-05-01T01:48:26.286Z,52.96
2023-05-01T01:49:26.265Z,52.23
2023-05-01T01:50:27.230Z,50.75
2023-05-01T01:51:26.249Z,52.12
2023-05-01T01:52:26.170Z,51.96
2023-05-01T01:53:26.181Z,51.45
2023-05-01T01:54:26.083Z,51.03
2023-05-01T01:55:26.109Z,50.73
2023-05-01T01:56:26.165Z,50.37
2023-05-01T01:57:26.067Z,50.90
2023-05-01T01:58:26.146Z,52.95
2023-05-01T01:59:26.120Z,50.60
2023-05-01T02:00:26.153Z,50.50
2023-05-01T02:01:26.083Z,52.47
2023-05-01T02:02:26.215Z,50.11
2023-05-01T02:03:26.238Z,52.72
2023-05-01T02:04:26.182Z,52.88
2023-05-01T02:05:26.113Z,51.45
2023-05-01T02:06:26.178Z,50.65
2023-05-01T02:07:26.092Z,50.61
2023-05-01T02:08:26.170Z,49.32
2023-05-01T02:09:26.098Z,50.93
2023-05-01T02:10:26.148Z,49.44
2023-05-01T02:11:26.023Z,50.87
2023-05-01T02:12:26.074Z,50.02
2023-05-01T02:13:26.041Z,49.16
2023-05-01T02:14:26.069Z,51.82
2023-05-01T02:15:26.112Z,50.14
2023-05-01T02:16:26.079Z,50.31
2023-05-01T02:17:26.062Z,51.20
2023-05-01T02:18:26.085Z,51.38
2023-05-01T02:19:26.047Z,51.33
2023-05-01T02:20:26.065Z,50.01
2023-05-01T02:21:26.213Z,49.58
2023-05-01T02:22:25.874Z,49.29
2023-05-01T02:23:25.933Z,50.52
2023-05-01T02:24:25.936Z,50.75
2023-05-01T02:25:26.605Z,52.31
2023-05-01T02:26:25.926Z,53.84
2023-05-01T02:27:25.925Z,52.93
2023-05-01T02:28:25.869Z,51.73
2023-05-01T02:29:25.820Z,55.04
2023-05-01T02:30:25.947Z,54.58
2023-05-01T02:31:25.987Z,49.92
2023-05-01T02:32:25.912Z,49.68
2023-05-01T02:33:25.934Z,49.74
2023-05-01T02:34:25.933Z,53.55
2023-05-01T02:35:25.880Z,49.41
2023-05-01T02:36:25.914Z,53.14
2023-05-01T02:37:25.937Z,55.62
2023-05-01T02:38:25.917Z,53.58
2023-05-01T02:39:25.893Z,53.75
2023-05-01T02:40:25.871Z,51.44
2023-05-01T02:41:26.861Z,51.48
2023-05-01T02:42:25.806Z,53.71
2023-05-01T02:43:25.820Z,49.66
2023-05-01T02:44:25.739Z,49.39
2023-05-01T02:45:25.821Z,51.50
2023-05-01T02:46:25.972Z,51.55
2023-05-01T02:47:25.839Z,49.99
2023-05-01T02:48:25.776Z,53.53
2023-05-01T02:49:25.713Z,51.94
2023-05-01T02:50:25.742Z,49.88
2023-05-01T02:51:25.753Z,51.28
2023-05-01T02:52:26.799Z,53.89
2023-05-01T02:53:25.777Z,53.05
2023-05-01T02:54:25.825Z,50.17
2023-05-01T02:55:25.783Z,51.12
2023-05-01T02:56:25.759Z,52.97
2023-05-01T02:57:25.817Z,50.78
2023-05-01T02:58:25.834Z,50.84
2023-05-01T02:59:25.746Z,51.99
2023-05-01T03:00:25.739Z,55.77
2023-05-01T03:01:25.731Z,53.31
2023-05-01T03:02:25.771Z,52.77
2023-05-01T03:03:25.752Z,52.98
2023-05-01T03:04:25.897Z,54.60
2023-05-01T03:05:25.724Z,54.13
2023-05-01T03:06:25.666Z,57.05
2023-05-01T03:07:25.605Z,57.53
2023-05-01T03:08:25.603Z,54.58
2023-05-01T03:09:25.688Z,55.65
2023-05-01T03:10:25.684Z,57.52
2023-05-01T03:11:25.586Z,56.92
2023-05-01T03:12:25.554Z,56.10
2023-05-01T03:13:25.777Z,55.28
2023-05-01T03:14:25.630Z,54.90
2023-05-01T03:15:25.734Z,58.00
2023-05-01T03:16:26.653Z,56.65
2023-05-01T03:17:25.798Z,57.32
2023-05-01T03:18:25.617Z,57.87
2023-05-01T03:19:25.679Z,57.93
2023-05-01T03:20:25.929Z,59.72
2023-05-01T03:21:25.567Z,61.84
2023-05-01T03:22:25.607Z,63.73
2023-05-01T03:23:25.554Z,62.84
2023-05-01T03:24:25.461Z,63.32
2023-05-01T03:25:25.517Z,63.25
2023-05-01T03:26:25.752Z,62.97
2023-05-01T03:27:25.476Z,63.22
2023-05-01T03:28:25.628Z,62.99
2023-05-01T03:29:25.436Z,65.05
2023-05-01T03:30:25.450Z,64.60
2023-05-01T03:31:25.753Z,66.13
2023-05-01T03:32:25.867Z,65.99
2023-05-01T03:33:25.543Z,66.15
2023-05-01T03:34:25.541Z,65.93
2023-05-01T03:35:25.600Z,66.25
2023-05-01T03:36:25.506Z,65.87
2023-05-01T03:37:25.565Z,66.04
2023-05-01T03:38:25.481Z,64.95
2023-05-01T03:39:25.467Z,63.18
2023-05-01T03:40:25.405Z,63.01
2023-05-01T03:41:25.440Z,64.46
2023-05-01T03:42:25.460Z,64.50
2023-05-01T03:43:25.418Z,63.45
2023-05-01T03:44:25.484Z,62.71
2023-05-01T03:45:25.347Z,63.29
2023-05-01T03:46:25.348Z,64.02
2023-05-01T03:47:25.334Z,63.30
2023-05-01T03:48:25.467Z,62.91
2023-05-01T03:49:25.348Z,60.47
2023-05-01T03:50:25.288Z,60.74
2023-05-01T03:51:25.283Z,62.05
2023-05-01T03:52:25.252Z,61.05
2023-05-01T03:53:25.340Z,61.32
2023-05-01T03:54:25.328Z,59.99
2023-05-01T03:55:25.349Z,60.09
2023-05-01T03:56:25.318Z,61.08
2023-05-01T03:57:25.331Z,60.58
2023-05-01T03:58:25.405Z,60.18
2023-05-01T03:59:25.311Z,58.49
2023-05-01T04:00:25.299Z,59.79
2023-05-01T04:01:25.307Z,57.72
2023-05-01T04:02:25.404Z,58.97
2023-05-01T04:03:25.480Z,59.72
2023-05-01T04:04:25.391Z,59.34
2023-05-01T04:05:25.318Z,59.20
2023-05-01T04:06:25.360Z,58.31
2023-05-01T04:07:25.351Z,57.04
2023-05-01T04:08:25.211Z,59.26
2023-05-01T04:09:25.254Z,58.45
2023-05-01T04:10:25.209Z,61.09
2023-05-01T04:11:25.176Z,61.49
2023-05-01T04:12:25.217Z,58.78
2023-05-01T04:13:25.144Z,59.12
2023-05-01T04:14:25.112Z,59.78
2023-05-01T04:15:25.183Z,57.75
2023-05-01T04:16:25.215Z,60.63
2023-05-01T04:17:25.102Z,60.05
2023-05-01T04:18:25.110Z,60.62
2023-05-01T04:19:25.170Z,57.72
2023-05-01T04:20:25.217Z,58.05
2023-05-01T04:21:25.156Z,56.65
2023-05-01T04:22:25.163Z,58.62
2023-05-01T04:23:25.180Z,61.35
2023-05-01T04:24:25.187Z,60.41
2023-05-01T04:25:25.181Z,60.33
2023-05-01T04:26:25.084Z,55.41
2023-05-01T04:27:26.151Z,57.07
2023-05-01T04:28:25.090Z,60.16
2023-05-01T04:29:25.128Z,58.71
2023-05-01T04:30:25.115Z,57.90
2023-05-01T04:31:25.559Z,57.70
2023-05-01T04:32:25.144Z,57.38
2023-05-01T04:33:25.062Z,56.68
2023-05-01T04:34:25.063Z,56.64
2023-05-01T04:35:25.100Z,58.76
2023-05-01T04:36:24.979Z,55.97
2023-05-01T04:37:25.048Z,56.91
2023-05-01T04:38:25.163Z,55.65
2023-05-01T04:39:24.953Z,56.71
2023-05-01T04:40:25.099Z,54.31
2023-05-01T04:41:25.000Z,54.66
2023-05-01T04:42:25.086Z,53.63
2023-05-01T04:43:25.065Z,59.81
2023-05-01T04:44:25.020Z,60.37
2023-05-01T04:45:25.020Z,59.97
2023-05-01T04:46:25.025Z,60.11
2023-05-01T04:47:24.995Z,57.54
2023-05-01T04:48:25.026Z,56.72
2023-05-01T04:49:24.965Z,55.18
2023-05-01T04:50:24.988Z,54.70
2023-05-01T04:51:24.984Z,54.46
2023-05-01T04:52:24.948Z,57.32
2023-05-01T04:53:24.998Z,59.43
2023-05-01T04:54:24.916Z,59.47
2023-05-01T04:55:24.955Z,58.48
2023-05-01T04:56:24.891Z,57.85
2023-05-01T04:57:24.825Z,59.03
2023-05-01T04:58:24.871Z,58.80
2023-05-01T04:59:24.850Z,57.39
2023-05-01T05:00:24.884Z,59.05
2023-05-01T05:01:24.989Z,58.69
2023-05-01T05:02:25.011Z,60.11
2023-05-01T05:03:24.993Z,57.79
2023-05-01T05:04:24.963Z,60.39
2023-05-01T05:05:24.895Z,60.71
2023-05-01T05:06:24.980Z,57.89
2023-05-01T05:07:24.877Z,54.54
2023-05-01T05:08:24.842Z,55.35
2023-05-01T05:09:24.847Z,57.89
2023-05-01T05:10:24.921Z,60.16
2023-05-01T05:11:24.840Z,58.65
2023-05-01T05:12:24.815Z,54.66
2023-05-01T05:13:24.832Z,56.39
2023-05-01T05:14:24.819Z,57.01
2023-05-01T05:15:24.744Z,54.42
2023-05-01T05:16:24.760Z,55.12
2023-05-01T05:17:24.774Z,56.71
2023-05-01T05:18:24.732Z,58.34
2023-05-01T05:19:24.743Z,56.51
2023-05-01T05:20:24.678Z,56.41
2023-05-01T05:21:24.725Z,58.67
2023-05-01T05:22:24.836Z,56.92
2023-05-01T05:23:24.800Z,54.31
2023-05-01T05:24:24.752Z,55.11
2023-05-01T05:25:24.747Z,57.74
2023-05-01T05:26:24.832Z,56.44
2023-05-01T05:27:24.797Z,55.91
2023-05-01T05:28:24.778Z,53.56
2023-05-01T05:29:24.739Z,58.99
2023-05-01T05:30:27.229Z,58.70
2023-05-01T05:31:24.669Z,57.26
2023-05-01T05:32:24.999Z,58.79
2023-05-01T05:33:24.738Z,59.55
2023-05-01T05:34:24.639Z,59.83
2023-05-01T05:35:24.558Z,58.40
2023-05-01T05:36:24.656Z,55.27
2023-05-01T05:37:24.609Z,54.67
2023-05-01T05:38:42.596Z,54.89
2023-05-01T05:39:25.569Z,53.45
2023-05-01T05:40:24.557Z,53.39
2023-05-01T05:41:24.655Z,54.49
2023-05-01T05:42:24.611Z,54.48
2023-05-01T05:43:27.358Z,52.11
2023-05-01T05:44:25.595Z,54.33
2023-05-01T05:45:24.684Z,55.18
2023-05-01T05:46:24.617Z,52.75
2023-05-01T05:47:24.626Z,53.19
2023-05-01T05:48:24.688Z,55.62
2023-05-01T05:49:24.608Z,53.68
2023-05-01T05:50:24.632Z,52.41
2023-05-01T05:51:24.508Z,54.51
2023-05-01T05:52:24.481Z,52.00
2023-05-01T05:53:26.017Z,52.23
2023-05-01T05:54:25.511Z,52.30
2023-05-01T05:55:24.452Z,52.83
2023-05-01T05:56:24.554Z,52.36
2023-05-01T05:57:24.547Z,52.53
2023-05-01T05:58:24.560Z,52.00
2023-05-01T05:59:24.561Z,52.52
2023-05-01T06:00:24.523Z,50.83
2023-05-01T06:01:24.494Z,52.82
2023-05-01T06:02:24.539Z,52.12
2023-05-01T06:03:24.597Z,50.19
2023-05-01T06:04:24.514Z,52.63
2023-05-01T06:05:24.576Z,55.39
2023-05-01T06:06:24.504Z,55.75
2023-05-01T06:07:24.455Z,54.84
2023-05-01T06:08:24.366Z,54.26
2023-05-01T06:09:24.373Z,53.22
2023-05-01T06:10:24.444Z,51.22
2023-05-01T06:11:24.354Z,53.05
2023-05-01T06:12:24.457Z,53.07
2023-05-01T06:13:24.420Z,52.88
2023-05-01T06:14:24.489Z,51.15
2023-05-01T06:15:24.385Z,53.51
2023-05-01T06:16:24.479Z,54.80
2023-05-01T06:17:24.357Z,56.06
2023-05-01T06:18:24.421Z,57.18
2023-05-01T06:19:24.412Z,54.48
2023-05-01T06:20:24.406Z,55.60
2023-05-01T06:21:24.417Z,55.73
2023-05-01T06:22:24.370Z,54.76
2023-05-01T06:23:25.405Z,51.25
2023-05-01T06:24:24.335Z,54.85
2023-05-01T06:25:24.569Z,57.70
2023-05-01T06:26:24.241Z,52.73
2023-05-01T06:27:24.282Z,51.82
2023-05-01T06:28:24.349Z,53.50
2023-05-01T06:29:24.194Z,54.15
2023-05-01T06:30:24.210Z,54.89
2023-05-01T06:31:24.266Z,56.42
2023-05-01T06:32:24.479Z,53.15
2023-05-01T06:33:24.191Z,53.60
2023-05-01T06:34:24.264Z,52.91
2023-05-01T06:35:24.311Z,55.89
2023-05-01T06:36:24.270Z,54.57
2023-05-01T06:37:31.010Z,54.00
2023-05-01T06:38:26.847Z,54.77
2023-05-01T06:39:24.246Z,54.86
2023-05-01T06:40:24.235Z,56.63
2023-05-01T06:41:24.597Z,54.88
2023-05-01T06:42:24.198Z,56.75
2023-05-01T06:43:24.232Z,55.64
2023-05-01T06:44:24.276Z,57.68
2023-05-01T06:45:24.204Z,55.61
2023-05-01T06:46:24.267Z,56.44
2023-05-01T06:47:24.178Z,55.70
2023-05-01T06:48:24.075Z,55.85
2023-05-01T06:49:24.103Z,57.76
2023-05-01T06:50:24.150Z,56.19
2023-05-01T06:51:24.164Z,57.56
2023-05-01T06:52:24.444Z,55.98
2023-05-01T06:53:24.193Z,55.86
2023-05-01T06:54:24.160Z,57.79
2023-05-01T06:55:24.116Z,57.39
2023-05-01T06:56:24.215Z,57.43
2023-05-01T06:57:24.252Z,56.25
2023-05-01T06:58:24.706Z,59.42
2023-05-01T06:59:25.242Z,57.71
2023-05-01T07:00:24.171Z,55.59
2023-05-01T07:01:24.149Z,54.04
2023-05-01T07:02:24.171Z,53.92
2023-05-01T07:03:24.109Z,54.72
2023-05-01T07:04:23.968Z,54.68
2023-05-01T07:05:24.071Z,54.67
2023-05-01T07:06:24.254Z,54.83
2023-05-01T07:07:23.968Z,53.80
2023-05-01T07:08:24.000Z,53.84
2023-05-01T07:09:24.089Z,53.58
2023-05-01T07:10:24.107Z,52.54
2023-05-01T07:11:24.157Z,53.17
2023-05-01T07:12:24.367Z,54.55
2023-05-01T07:13:23.994Z,54.73
2023-05-01T07:14:23.999Z,56.09
2023-05-01T07:15:24.030Z,56.46
2023-05-01T07:16:24.106Z,56.17
2023-05-01T07:17:24.086Z,57.03
2023-05-01T07:18:25.161Z,60.58
2023-05-01T07:19:24.033Z,59.99
2023-05-01T07:20:23.951Z,55.57
2023-05-01T07:21:24.027Z,53.19
2023-05-01T07:22:24.124Z,53.16
2023-05-01T07:23:23.902Z,55.50
2023-05-01T07:24:23.924Z,54.22
2023-05-01T07:25:24.955Z,53.45
2023-05-01T07:26:24.933Z,50.11
2023-05-01T07:27:23.792Z,52.31
2023-05-01T07:28:23.886Z,55.91
2023-05-01T07:29:23.861Z,58.10
2023-05-01T07:30:24.109Z,53.14
2023-05-01T07:31:23.947Z,52.41
2023-05-01T07:32:23.905Z,52.30
2023-05-01T07:33:23.950Z,55.09
2023-05-01T07:34:23.929Z,55.88
2023-05-01T07:35:23.891Z,56.35
2023-05-01T07:36:23.868Z,55.52
2023-05-01T07:37:24.231Z,54.59
2023-05-01T07:38:23.931Z,54.36
2023-05-01T07:39:24.977Z,54.92
2023-05-01T07:40:24.363Z,54.85
2023-05-01T07:41:24.473Z,55.71
2023-05-01T07:42:24.085Z,54.42
2023-05-01T07:43:24.447Z,54.59
2023-05-01T07:44:24.051Z,54.33
2023-05-01T07:45:23.984Z,56.08
2023-05-01T07:46:23.862Z,52.26
2023-05-01T07:47:23.847Z,55.55
2023-05-01T07:48:23.888Z,53.69
2023-05-01T07:49:24.101Z,53.79
2023-05-01T07:50:24.180Z,54.74
2023-05-01T07:51:24.014Z,55.85
2023-05-01T07:52:24.338Z,56.64
2023-05-01T07:53:23.839Z,53.01
2023-05-01T07:54:23.921Z,53.81
2023-05-01T07:55:23.713Z,56.30
2023-05-01T07:56:23.681Z,56.63
2023-05-01T07:57:23.743Z,54.08
2023-05-01T07:58:23.671Z,56.02
2023-05-01T07:59:24.022Z,56.96
2023-05-01T08:00:24.264Z,54.18
2023-05-01T08:01:24.671Z,55.63
2023-05-01T08:02:23.672Z,55.84
2023-05-01T08:03:23.825Z,57.25
2023-05-01T08:04:23.640Z,53.28
2023-05-01T08:05:24.128Z,55.44
2023-05-01T08:06:23.765Z,55.07
2023-05-01T08:07:23.548Z,54.69
2023-05-01T08:08:23.561Z,54.99
2023-05-01T08:09:23.754Z,55.33
2023-05-01T08:10:23.742Z,55.95
2023-05-01T08:11:23.726Z,54.95
2023-05-01T08:12:23.694Z,54.07
2023-05-01T08:13:24.260Z,54.14
2023-05-01T08:14:23.776Z,54.89
2023-05-01T08:15:24.177Z,56.36
2023-05-01T08:16:23.890Z,55.42
2023-05-01T08:17:23.605Z,56.48
2023-05-01T08:18:23.992Z,57.93
2023-05-01T08:19:24.030Z,55.91
2023-05-01T08:20:24.155Z,56.13
2023-05-01T08:21:23.776Z,54.65
2023-05-01T08:22:23.625Z,52.13
2023-05-01T08:23:23.587Z,55.38
2023-05-01T08:24:23.585Z,55.30
2023-05-01T08:25:23.607Z,57.20
2023-05-01T08:26:23.989Z,53.89
2023-05-01T08:27:23.382Z,54.22
2023-05-01T08:28:23.484Z,55.70
2023-05-01T08:29:23.401Z,55.70
2023-05-01T08:30:24.397Z,53.58
2023-05-01T08:31:23.514Z,54.59
2023-05-01T08:32:23.623Z,53.72
2023-05-01T08:33:23.480Z,53.18
2023-05-01T08:34:23.492Z,53.38
2023-05-01T08:35:23.575Z,57.93
2023-05-01T08:36:23.472Z,53.40
2023-05-01T08:37:24.076Z,52.62
2023-05-01T08:38:23.380Z,52.08
2023-05-01T08:39:23.833Z,52.88
2023-05-01T08:40:23.466Z,52.31
2023-05-01T08:41:24.500Z,56.43
2023-05-01T08:42:24.002Z,53.55
2023-05-01T08:43:24.150Z,54.33
2023-05-01T08:44:23.963Z,54.12
2023-05-01T08:45:23.725Z,55.71
2023-05-01T08:46:29.791Z,54.43
2023-05-01T08:47:25.891Z,52.25
2023-05-01T08:48:23.759Z,51.65
2023-05-01T08:49:23.956Z,52.55
2023-05-01T08:50:23.906Z,53.85
2023-05-01T08:51:23.438Z,52.73
2023-05-01T08:52:23.303Z,53.05
2023-05-01T08:53:23.407Z,55.94
2023-05-01T08:54:23.320Z,54.31
2023-05-01T08:55:23.330Z,55.18
2023-05-01T08:56:23.342Z,53.46
2023-05-01T08:57:23.290Z,55.12
2023-05-01T08:58:23.309Z,56.13
2023-05-01T08:59:23.431Z,53.11
2023-05-01T09:00:23.269Z,53.89
2023-05-01T09:01:23.276Z,54.37
2023-05-01T09:02:23.248Z,54.71
2023-05-01T09:03:23.189Z,55.03
2023-05-01T09:04:23.304Z,54.84
2023-05-01T09:05:23.142Z,53.84
2023-05-01T09:06:23.270Z,53.41
2023-05-01T09:07:23.171Z,53.02
2023-05-01T09:08:23.119Z,53.90
2023-05-01T09:09:23.236Z,52.77
2023-05-01T09:10:23.224Z,53.39
2023-05-01T09:11:23.080Z,53.37
2023-05-01T09:12:23.249Z,51.68
2023-05-01T09:13:23.138Z,52.70
2023-05-01T09:14:23.180Z,53.35
2023-05-01T09:15:23.182Z,52.83
2023-05-01T09:16:23.294Z,56.24
2023-05-01T09:17:55.446Z,53.60
2023-05-01T09:18:22.981Z,53.37
2023-05-01T09:19:55.142Z,52.02
2023-05-01T09:23:33.219Z,51.32
2023-05-01T09:28:08.706Z,52.04
2023-05-01T09:29:14.699Z,55.32
2023-05-01T09:29:42.682Z,54.07
2023-05-01T09:30:42.639Z,51.84
2023-05-01T09:31:42.721Z,52.63
2023-05-01T09:46:00.251Z,51.80
2023-05-01T09:55:06.732Z,53.10
2023-05-01T09:59:08.318Z,50.66
2023-05-01T09:59:36.393Z,51.16
2023-05-01T10:01:09.946Z,49.35
2023-05-01T10:01:36.434Z,50.83
2023-05-01T10:02:36.418Z,52.44
2023-05-01T10:03:36.373Z,50.41
2023-05-01T10:04:36.750Z,50.33
2023-05-01T10:05:36.378Z,59.48
2023-05-01T10:49:36.562Z,49.37
2023-05-01T10:50:36.649Z,50.17
2023-05-01T10:51:36.623Z,50.64
2023-05-01T10:52:36.671Z,50.34
2023-05-01T10:53:36.554Z,50.78
2023-05-01T10:58:33.964Z,50.89
2023-05-01T11:36:50.707Z,49.99
2023-05-01T11:37:17.596Z,51.31
2023-05-01T11:38:17.724Z,52.53
2023-05-01T11:39:17.591Z,50.86
2023-05-01T11:40:17.686Z,50.84
2023-05-01T11:45:22.439Z,48.06
2023-05-01T12:02:14.319Z,48.24
2023-05-01T12:06:12.721Z,48.75
2023-05-01T12:07:13.128Z,48.05
2023-05-01T12:08:14.164Z,46.98
2023-05-01T12:09:14.408Z,50.67
2023-05-01T12:14:37.010Z,48.70
2023-05-01T12:15:36.945Z,48.05
2023-05-01T12:16:36.854Z,47.96
2023-05-01T12:17:37.320Z,51.12
2023-05-01T12:19:08.878Z,49.24
2023-05-01T12:19:36.681Z,49.08
2023-05-01T12:57:20.754Z,46.75
2023-05-01T12:58:21.879Z,48.95
2023-05-01T13:19:05.587Z,48.58
2023-05-01T15:20:42.739Z,55.75
2023-05-01T15:21:42.973Z,53.54
2023-05-01T18:08:54.129Z,58.22
2023-05-01T22:26:34.675Z,53.69
2023-05-01T22:27:35.915Z,47.95
2023-05-01T22:31:56.479Z,44.94
2023-05-01T22:32:56.281Z,45.45
2023-05-01T22:33:56.354Z,46.84
2023-05-01T22:34:56.247Z,50.70
2023-05-01T22:35:56.443Z,45.88
2023-05-01T22:36:56.328Z,47.65
2023-05-01T22:37:56.237Z,48.95
2023-05-01T22:38:56.125Z,52.03
2023-05-01T22:39:56.192Z,48.40
2023-05-01T22:40:56.124Z,48.09
2023-05-01T22:41:56.169Z,47.24
2023-05-01T22:42:56.106Z,46.70
2023-05-01T22:43:56.153Z,47.04
2023-05-01T22:44:56.153Z,46.89
2023-05-01T22:45:56.133Z,46.39
2023-05-01T22:46:56.217Z,46.12
2023-05-01T22:47:56.150Z,48.94
2023-05-01T22:48:56.176Z,51.02
2023-05-01T22:49:56.193Z,50.16
2023-05-01T22:50:56.128Z,49.32
2023-05-01T22:51:56.107Z,47.38
2023-05-01T22:52:56.178Z,46.00
2023-05-01T22:53:56.159Z,45.79
2023-05-01T22:54:56.158Z,46.09
2023-05-01T22:55:56.075Z,47.83
2023-05-01T22:56:57.083Z,46.41
2023-05-01T22:57:56.127Z,46.49
2023-05-01T22:58:56.159Z,47.91
2023-05-01T22:59:56.102Z,48.67
2023-05-01T23:01:00.887Z,49.95
2023-05-01T23:01:57.107Z,48.28
2023-05-01T23:02:55.997Z,47.68
2023-05-01T23:03:56.251Z,48.84
2023-05-01T23:04:56.067Z,46.30
2023-05-01T23:05:56.014Z,46.17
2023-05-01T23:06:56.019Z,47.05
2023-05-01T23:07:56.159Z,49.85
2023-05-01T23:08:56.098Z,54.49
2023-05-01T23:09:56.012Z,48.38
2023-05-01T23:10:55.976Z,47.77
2023-05-01T23:11:55.977Z,47.11
2023-05-01T23:12:56.011Z,47.46
2023-05-01T23:13:55.972Z,46.67
2023-05-01T23:14:56.073Z,46.60
2023-05-01T23:15:56.004Z,48.03
2023-05-01T23:16:55.993Z,55.60
2023-05-01T23:17:55.948Z,47.92
2023-05-01T23:18:55.870Z,48.44
2023-05-01T23:19:55.985Z,54.77
2023-05-01T23:20:55.822Z,54.09
2023-05-01T23:21:55.864Z,53.43
2023-05-01T23:26:06.149Z,51.18
2023-05-01T23:27:06.220Z,47.98
2023-05-01T23:28:06.163Z,47.69
2023-05-01T23:29:06.292Z,47.85
2023-05-01T23:30:06.451Z,50.33
2023-05-01T23:31:06.281Z,51.88
2023-05-01T23:32:06.380Z,55.08
2023-05-01T23:33:06.308Z,54.57
2023-05-01T23:34:06.207Z,55.18
2023-05-01T23:35:06.241Z,49.26
2023-05-01T23:36:06.243Z,52.75
2023-05-01T23:37:06.206Z,48.81
2023-05-01T23:38:06.305Z,49.37
2023-05-01T23:39:06.224Z,48.87
2023-05-01T23:40:06.207Z,50.53
2023-05-01T23:41:06.230Z,50.67
2023-05-01T23:42:06.412Z,48.25
2023-05-01T23:43:06.279Z,53.00
2023-05-01T23:44:06.257Z,48.29
2023-05-01T23:45:06.133Z,50.51
2023-05-01T23:46:06.097Z,54.40
2023-05-01T23:47:06.249Z,53.72
2023-05-01T23:48:06.087Z,53.65
2023-05-01T23:49:06.083Z,54.50
2023-05-01T23:50:06.102Z,50.70
2023-05-01T23:51:05.995Z,55.82
2023-05-01T23:52:06.130Z,53.33
2023-05-01T23:53:06.085Z,48.79
2023-05-01T23:57:04.792Z,46.86
2023-05-01T23:58:04.854Z,48.41
2023-05-01T23:59:04.710Z,53.04
